Visit the IPS Meteostar Home Page IPSM Eppley Airfield FORECAST

Omaha, Nebraska

23

35

38

38

38

42

40

38

19
19
22
28
22
22
25
22

4 miles away at Eppley Airfield 4:52 GMT

Weather:

 Partly Cloudy 

Wind:

SSE 9 mph

Temperature:

23 ° F

Pressure:

30.16

Dew Point:

18 ° F

Relative Humidity:

78

Feels Like:

13 ° F

Visibility:

10 miles


Aviation Observations:

KOMA 110452Z 15008KT 10SM SCT250 M05/M08 A3010 RMK AO2 SLP207 T10501078 =

National Weather Service Forecast:
Douglas
1127 PM CST MON DEC 10 2018 Rest of tonight...mostly clear. Lows around 19. Southwest winds 5 to 10 mph.

TUESDAY

Increasing clouds. Highs in the mid 30s. West winds up to 5 mph.

TUESDAY NIGHT

Mostly cloudy. Lows in the lower 20s. Northwest winds up to 10 mph.

WEDNESDAY

Mostly sunny. Highs in the upper 30s. West winds around 5 mph shifting to the south in the afternoon.

WEDNESDAY NIGHT

Increasing clouds. Lows in the upper 20s. south winds around 5 mph shifting to the west after midnight.

THURSDAY

Mostly cloudy. Highs in the upper 30s.

THURSDAY NIGHT

Partly cloudy. Lows in the lower 20s.

FRIDAY

Sunny. Highs in the upper 30s.

FRIDAY NIGHT

Clear. Lows in the lower 20s.

SATURDAY

Sunny. Highs in the lower 40s.

SATURDAY NIGHT

Partly cloudy. Lows in the mid 20s.

SUNDAY

Sunny. Highs around 40.

SUNDAY NIGHT

Mostly clear. Lows in the lower 20s.

MONDAY

Sunny. Highs in the upper 30s.


Visit the IPS Meteostar Home Page